Time;durP1;ratioP1;P1;durP2;ratioP2;P2;SDS_P1;SDS_P2;PMS_P1;PMS_P2;Temp;Humidity;BMP_temperature;BMP_pressure;BME280_temperature;BME280_humidity;BME280_pressure;Samples;Min_cycle;Max_cycle;Signal;HPM_P1;HPM_P2
2023/10/12 00:02:04;;;;;;;209.10;121.50;;;;;13.60;97128.00;;;;5054512;28;20601;-68
2023/10/12 00:04:53;;;;;;;196.67;116.60;;;;;13.90;97131.00;;;;5069984;28;20778;-67
2023/10/12 00:07:45;;;;;;;200.03;118.63;;;;;13.70;97122.00;;;;5065296;28;20257;-67
2023/10/12 00:10:41;;;;;;;214.87;125.33;;;;;13.60;97119.00;;;;5063896;28;20204;-68
2023/10/12 00:13:30;;;;;;;215.93;123.03;;;;;13.30;97114.00;;;;5069139;28;20224;-67
2023/10/12 00:16:20;;;;;;;205.13;117.73;;;;;13.30;97118.00;;;;5068928;28;20211;-67
2023/10/12 00:19:12;;;;;;;203.00;122.03;;;;;13.20;97122.00;;;;5069403;28;21080;-67
2023/10/12 00:22:02;;;;;;;188.17;111.00;;;;;12.90;97115.00;;;;5064407;28;20224;-67
2023/10/12 00:24:52;;;;;;;186.17;111.87;;;;;12.90;97109.00;;;;5070180;28;20211;-68
2023/10/12 00:27:41;;;;;;;181.47;111.97;;;;;13.20;97111.00;;;;5069343;28;20579;-68
2023/10/12 00:30:31;;;;;;;180.77;112.73;;;;;13.20;97110.00;;;;5068610;28;20204;-67
2023/10/12 00:33:20;;;;;;;174.93;112.37;;;;;13.40;97105.00;;;;5068590;28;20314;-68
2023/10/12 00:36:19;;;;;;;176.30;112.03;;;;;13.70;97103.00;;;;5068977;28;20207;-68
2023/10/12 00:39:10;;;;;;;166.37;110.43;;;;;13.80;97102.00;;;;5065916;28;20579;-67
2023/10/12 00:42:00;;;;;;;168.03;110.03;;;;;13.90;97092.00;;;;5070077;28;20708;-67
2023/10/12 00:44:52;;;;;;;168.80;111.80;;;;;14.00;97098.00;;;;5069185;28;20200;-67
2023/10/12 00:47:44;;;;;;;184.07;115.93;;;;;13.40;97094.00;;;;5068492;28;20196;-67
2023/10/12 00:50:35;;;;;;;194.37;117.10;;;;;12.90;97089.00;;;;5067085;28;20211;-68
2023/10/12 00:53:31;;;;;;;192.77;112.97;;;;;12.90;97088.00;;;;5096526;22;20239;-70
2023/10/12 00:56:20;;;;;;;185.37;114.03;;;;;12.80;97078.00;;;;5075578;28;20692;-70
2023/10/12 00:59:11;;;;;;;184.97;112.87;;;;;12.90;97087.00;;;;5077672;28;20203;-70
2023/10/12 01:02:02;;;;;;;162.27;106.03;;;;;12.80;97089.00;;;;5084287;28;20220;-70
2023/10/12 01:04:53;;;;;;;170.00;108.73;;;;;13.30;97089.00;;;;5052186;28;20694;-70
2023/10/12 01:07:42;;;;;;;194.53;116.43;;;;;13.70;97088.00;;;;5057427;28;20207;-70
2023/10/12 01:10:40;;;;;;;220.97;123.10;;;;;13.50;97098.00;;;;5068198;28;20199;-70
2023/10/12 01:13:33;;;;;;;227.17;120.30;;;;;13.40;97082.00;;;;5070088;28;20232;-71
2023/10/12 01:16:23;;;;;;;238.47;122.57;;;;;13.50;97080.00;;;;5060902;28;20207;-70
2023/10/12 01:19:20;;;;;;;234.67;119.67;;;;;13.30;97068.00;;;;5053834;28;20204;-70
2023/10/12 01:22:13;;;;;;;218.90;116.23;;;;;13.10;97070.00;;;;5064900;28;20218;-70
2023/10/12 01:25:11;;;;;;;212.20;116.63;;;;;13.40;97075.00;;;;5057923;28;20341;-70
2023/10/12 01:28:06;;;;;;;231.63;117.73;;;;;13.40;97064.00;;;;5050517;28;20222;-70
2023/10/12 01:30:55;;;;;;;244.33;119.33;;;;;13.10;97070.00;;;;5057902;28;20201;-70
2023/10/12 01:33:47;;;;;;;199.07;113.10;;;;;13.30;97057.00;;;;5058137;28;20812;-70
2023/10/12 01:36:36;;;;;;;197.17;115.33;;;;;13.70;97071.00;;;;5059889;28;20210;-70
2023/10/12 01:39:28;;;;;;;199.90;116.03;;;;;13.40;97068.00;;;;5068190;28;20200;-70
2023/10/12 01:42:21;;;;;;;204.00;114.60;;;;;13.10;97072.00;;;;5065940;28;20223;-71
2023/10/12 01:45:18;;;;;;;235.77;113.20;;;;;13.10;97075.00;;;;5058362;28;20934;-71
2023/10/12 01:48:10;;;;;;;239.40;118.07;;;;;12.90;97064.00;;;;5064667;28;20279;-70
2023/10/12 01:51:09;;;;;;;205.70;111.83;;;;;13.40;97064.00;;;;5056959;28;20729;-71
2023/10/12 01:53:58;;;;;;;182.77;107.80;;;;;13.20;97063.00;;;;5060321;28;20696;-71
2023/10/12 01:56:51;;;;;;;159.03;104.20;;;;;13.40;97064.00;;;;5060597;28;20240;-71
2023/10/12 01:59:41;;;;;;;152.63;104.83;;;;;13.40;97063.00;;;;5059794;28;20211;-70
2023/10/12 02:02:30;;;;;;;164.53;109.13;;;;;13.20;97071.00;;;;5067355;28;20227;-70
2023/10/12 02:05:25;;;;;;;142.63;102.77;;;;;13.20;97067.00;;;;5059332;28;20221;-71
2023/10/12 02:08:16;;;;;;;141.43;101.40;;;;;13.30;97063.00;;;;5060855;28;20203;-71
2023/10/12 02:11:09;;;;;;;141.63;106.07;;;;;13.10;97064.00;;;;5062635;28;20209;-71
2023/10/12 02:14:01;;;;;;;140.50;102.83;;;;;13.40;97067.00;;;;5058045;28;20235;-70
2023/10/12 02:16:54;;;;;;;132.70;100.90;;;;;13.10;97061.00;;;;5061703;28;20606;-70
2023/10/12 02:19:43;;;;;;;133.83;100.73;;;;;12.80;97055.00;;;;5047090;28;20196;-71
2023/10/12 02:22:32;;;;;;;138.50;102.20;;;;;13.00;97074.00;;;;5058764;28;20227;-71
2023/10/12 02:25:26;;;;;;;142.10;104.93;;;;;12.90;97062.00;;;;5058324;28;20594;-72
2023/10/12 02:28:15;;;;;;;136.97;101.50;;;;;12.90;97066.00;;;;5059375;28;20204;-70
2023/10/12 02:31:06;;;;;;;133.63;98.20;;;;;13.50;97075.00;;;;5057070;28;20695;-70
2023/10/12 02:33:55;;;;;;;130.60;96.00;;;;;13.30;97068.00;;;;5057664;28;20224;-71
2023/10/12 02:37:00;;;;;;;143.93;106.07;;;;;13.40;97064.00;;;;5055490;28;20227;-70
2023/10/12 02:39:53;;;;;;;126.23;101.70;;;;;13.10;97067.00;;;;5068804;28;20208;-71
2023/10/12 02:42:45;;;;;;;131.17;99.47;;;;;12.70;97061.00;;;;5066394;28;20604;-70
2023/10/12 02:45:40;;;;;;;147.03;104.90;;;;;13.30;97057.00;;;;5066668;28;20227;-70
2023/10/12 02:48:36;;;;;;;136.80;105.03;;;;;13.20;97056.00;;;;5066425;28;20203;-70
2023/10/12 02:51:25;;;;;;;123.80;97.73;;;;;12.80;97049.00;;;;5057339;28;20215;-70
2023/10/12 02:54:15;;;;;;;122.97;97.23;;;;;12.90;97058.00;;;;5056011;28;20224;-70
2023/10/12 02:57:06;;;;;;;115.20;94.50;;;;;13.00;97065.00;;;;5068039;28;20676;-70
2023/10/12 03:00:04;;;;;;;108.67;92.20;;;;;12.70;97050.00;;;;5061584;28;20192;-71
2023/10/12 03:02:54;;;;;;;117.07;93.33;;;;;13.10;97060.00;;;;5071809;28;20619;-71
2023/10/12 03:05:47;;;;;;;123.90;97.43;;;;;12.60;97065.00;;;;5067442;28;20203;-71
2023/10/12 03:09:01;;;;;;;107.70;92.83;;;;;12.20;97054.00;;;;5069621;28;20226;-71
2023/10/12 03:11:56;;;;;;;101.03;89.60;;;;;12.80;97057.00;;;;5063514;28;20192;-70
2023/10/12 03:14:45;;;;;;;100.90;90.47;;;;;13.00;97074.00;;;;5063658;28;20226;-70
2023/10/12 03:17:34;;;;;;;116.10;97.87;;;;;12.90;97054.00;;;;5059416;28;20870;-70
2023/10/12 03:20:23;;;;;;;108.97;90.50;;;;;13.00;97052.00;;;;5062990;28;20204;-71
2023/10/12 03:23:14;;;;;;;101.80;90.73;;;;;12.70;97057.00;;;;5064413;28;20224;-70
2023/10/12 03:26:06;;;;;;;97.27;86.13;;;;;12.50;97052.00;;;;5068260;28;20208;-70
2023/10/12 03:29:05;;;;;;;96.40;85.87;;;;;12.40;97060.00;;;;5060109;28;20200;-71
2023/10/12 03:31:56;;;;;;;97.77;87.37;;;;;12.40;97064.00;;;;5062463;28;20193;-70
2023/10/12 03:34:54;;;;;;;100.03;89.63;;;;;12.50;97067.00;;;;5062718;28;20292;-70
2023/10/12 03:37:47;;;;;;;94.20;84.10;;;;;12.90;97063.00;;;;5070018;28;20754;-71
2023/10/12 03:41:17;;;;;;;106.83;91.07;;;;;12.60;97065.00;;;;5071059;28;20204;-71
2023/10/12 03:44:06;;;;;;;93.07;83.27;;;;;12.50;97073.00;;;;5064345;28;20318;-70
2023/10/12 03:47:00;;;;;;;92.77;83.30;;;;;12.40;97066.00;;;;5063587;28;20196;-71
2023/10/12 03:49:59;;;;;;;94.97;84.80;;;;;12.80;97074.00;;;;5055023;28;20200;-71
2023/10/12 03:52:52;;;;;;;90.33;80.97;;;;;12.90;97069.00;;;;5058744;28;20197;-71
2023/10/12 03:55:49;;;;;;;99.20;88.33;;;;;13.00;97067.00;;;;5061992;28;20203;-71
2023/10/12 03:58:41;;;;;;;99.87;88.97;;;;;13.20;97067.00;;;;5063364;28;20200;-71
2023/10/12 04:01:31;;;;;;;101.80;90.20;;;;;13.10;97072.00;;;;5070241;28;20208;-70
2023/10/12 04:04:21;;;;;;;98.57;88.07;;;;;13.10;97071.00;;;;5070320;28;20720;-71
2023/10/12 04:07:19;;;;;;;92.70;83.27;;;;;12.40;97063.00;;;;5063286;28;20205;-70
2023/10/12 04:10:59;;;;;;;97.23;87.03;;;;;12.70;97069.00;;;;5066673;28;20196;-70
2023/10/12 04:16:40;;;;;;;102.13;90.80;;;;;12.50;97069.00;;;;5061934;28;20192;-70
2023/10/12 04:19:33;;;;;;;105.00;90.80;;;;;12.30;97063.00;;;;5065202;28;20205;-71
2023/10/12 04:22:25;;;;;;;96.47;86.40;;;;;12.40;97068.00;;;;5055696;28;20228;-70
2023/10/12 04:25:24;;;;;;;94.73;84.80;;;;;12.80;97073.00;;;;5070280;28;20200;-70
2023/10/12 04:28:18;;;;;;;96.00;86.10;;;;;13.10;97070.00;;;;5069249;28;20192;-70
2023/10/12 04:31:49;;;;;;;101.47;90.60;;;;;13.20;97069.00;;;;5060881;28;20200;-70
2023/10/12 04:34:47;;;;;;;100.73;88.50;;;;;13.10;97072.00;;;;5061770;28;20234;-70
2023/10/12 04:37:38;;;;;;;113.80;94.80;;;;;12.40;97072.00;;;;5061286;28;20200;-70
2023/10/12 04:40:36;;;;;;;103.47;90.80;;;;;12.70;97064.00;;;;5060692;28;20209;-70
2023/10/12 04:43:25;;;;;;;101.97;90.50;;;;;12.70;97064.00;;;;5068549;28;20941;-70
2023/10/12 04:46:27;;;;;;;95.47;85.67;;;;;12.60;97065.00;;;;5058509;28;20201;-70
2023/10/12 04:52:32;;;;;;;93.23;83.70;;;;;12.40;97060.00;;;;5057637;28;20204;-70
2023/10/12 04:55:21;;;;;;;91.67;81.93;;;;;12.50;97070.00;;;;5053431;28;20278;-70
2023/10/12 04:58:15;;;;;;;88.27;79.30;;;;;12.30;97059.00;;;;5064207;28;20204;-70
2023/10/12 05:01:18;;;;;;;92.50;82.87;;;;;12.20;97062.00;;;;5064387;28;20200;-70
2023/10/12 05:04:09;;;;;;;84.83;76.53;;;;;12.40;97070.00;;;;5053450;28;20293;-70
2023/10/12 05:07:23;;;;;;;90.27;80.97;;;;;13.00;97067.00;;;;5063310;28;20211;-70
2023/10/12 05:10:14;;;;;;;92.53;82.83;;;;;12.90;97071.00;;;;5062253;28;20210;-70
2023/10/12 05:13:05;;;;;;;91.07;81.87;;;;;12.50;97065.00;;;;5064442;28;20224;-70
2023/10/12 05:16:03;;;;;;;86.97;78.47;;;;;12.50;97070.00;;;;5060100;28;20751;-70
2023/10/12 05:18:52;;;;;;;89.97;80.90;;;;;12.50;97077.00;;;;5061567;28;20197;-70
2023/10/12 05:21:43;;;;;;;93.53;84.17;;;;;12.30;97076.00;;;;5061682;28;20215;-70
2023/10/12 05:24:33;;;;;;;104.93;90.47;;;;;12.80;97062.00;;;;5066533;28;20251;-71
2023/10/12 05:27:23;;;;;;;93.33;83.70;;;;;13.00;97075.00;;;;5063191;28;20196;-70
2023/10/12 05:30:20;;;;;;;89.43;80.37;;;;;13.00;97076.00;;;;5061344;28;20261;-70
2023/10/12 05:33:28;;;;;;;90.90;81.63;;;;;13.10;97083.00;;;;5063206;28;20227;-70
2023/10/12 05:36:18;;;;;;;94.93;85.00;;;;;13.20;97085.00;;;;5061941;28;20209;-70
2023/10/12 05:39:14;;;;;;;96.50;86.47;;;;;13.10;97087.00;;;;5061129;28;20203;-71
2023/10/12 05:42:05;;;;;;;103.93;92.93;;;;;12.90;97084.00;;;;5065572;28;20200;-70
2023/10/12 05:45:18;;;;;;;99.67;89.20;;;;;12.80;97075.00;;;;5063793;28;20648;-70
2023/10/12 05:48:08;;;;;;;93.20;83.90;;;;;12.60;97080.00;;;;5060608;28;20200;-70
2023/10/12 05:50:57;;;;;;;97.80;87.87;;;;;12.50;97085.00;;;;5064535;28;20199;-70
2023/10/12 05:53:48;;;;;;;93.90;84.10;;;;;12.60;97091.00;;;;5059710;28;20231;-71
2023/10/12 05:56:40;;;;;;;103.80;91.00;;;;;12.40;97087.00;;;;5064090;28;20235;-71
2023/10/12 05:59:29;;;;;;;102.93;91.33;;;;;12.40;97099.00;;;;5063161;28;20206;-71
2023/10/12 06:02:18;;;;;;;97.07;86.67;;;;;12.30;97098.00;;;;5062452;28;20242;-70
2023/10/12 06:05:08;;;;;;;90.60;81.60;;;;;12.40;97096.00;;;;5058868;28;20670;-71
2023/10/12 06:08:02;;;;;;;92.43;83.27;;;;;12.20;97095.00;;;;5060011;28;20200;-70
2023/10/12 06:10:54;;;;;;;95.93;85.87;;;;;12.90;97098.00;;;;5062990;28;20203;-70
2023/10/12 06:13:51;;;;;;;97.53;86.87;;;;;13.00;97083.00;;;;5062207;28;20227;-70
2023/10/12 06:16:41;;;;;;;99.77;88.87;;;;;13.60;97094.00;;;;5059683;28;20196;-70
2023/10/12 06:19:34;;;;;;;114.30;96.90;;;;;13.40;97092.00;;;;5057402;28;20193;-70
2023/10/12 06:22:32;;;;;;;110.73;98.60;;;;;13.00;97091.00;;;;5063413;28;20212;-70
2023/10/12 06:25:21;;;;;;;106.03;93.67;;;;;12.50;97093.00;;;;5060483;28;20286;-69
2023/10/12 06:28:17;;;;;;;108.77;95.03;;;;;12.90;97095.00;;;;5053513;28;20668;-70
2023/10/12 06:31:07;;;;;;;102.83;91.73;;;;;13.00;97093.00;;;;5065069;28;20685;-70
2023/10/12 06:34:00;;;;;;;109.87;98.00;;;;;13.30;97105.00;;;;5067529;28;20220;-69
2023/10/12 06:36:49;;;;;;;105.80;94.50;;;;;13.10;97102.00;;;;5062815;28;20847;-70
2023/10/12 06:42:45;;;;;;;103.90;92.97;;;;;13.80;97101.00;;;;5065001;28;20199;-70
2023/10/12 06:45:38;;;;;;;121.67;105.07;;;;;13.80;97103.00;;;;5069779;28;20206;-70
2023/10/12 06:51:32;;;;;;;112.33;101.03;;;;;14.00;97109.00;;;;5057472;28;20269;-71
2023/10/12 06:54:31;;;;;;;113.63;101.63;;;;;13.40;97101.00;;;;5085847;22;20231;-84
2023/10/12 06:57:35;;;;;;;114.20;102.03;;;;;13.90;97105.00;;;;5091910;28;20219;-84
2023/10/12 07:03:34;;;;;;;124.13;108.33;;;;;14.50;97108.00;;;;5087700;28;20224;-87
2023/10/12 07:06:23;;;;;;;120.43;107.73;;;;;15.00;97109.00;;;;5088115;28;20248;-84
2023/10/12 07:09:13;;;;;;;125.63;111.80;;;;;15.10;97101.00;;;;5087333;28;20200;-85
2023/10/12 07:12:02;;;;;;;129.90;116.23;;;;;15.40;97110.00;;;;5087533;28;20697;-85
2023/10/12 07:14:55;;;;;;;132.67;118.60;;;;;15.90;97126.00;;;;5083108;28;20206;-86
2023/10/12 07:17:48;;;;;;;139.80;124.63;;;;;15.80;97112.00;;;;5086733;28;20212;-85
2023/10/12 07:20:43;;;;;;;147.67;131.93;;;;;16.10;97115.00;;;;5086313;28;20701;-85
2023/10/12 07:23:35;;;;;;;153.40;136.57;;;;;16.20;97119.00;;;;5087777;28;20226;-85
2023/10/12 07:26:30;;;;;;;154.07;137.90;;;;;16.40;97120.00;;;;5086823;28;20243;-87
2023/10/12 07:29:35;;;;;;;146.23;131.47;;;;;15.90;97110.00;;;;5084903;28;20211;-86
2023/10/12 07:32:38;;;;;;;151.83;136.07;;;;;16.50;97115.00;;;;5089404;28;20218;-84
2023/10/12 07:35:34;;;;;;;164.63;147.67;;;;;16.70;97119.00;;;;5089153;28;20230;-86
2023/10/12 07:38:34;;;;;;;158.70;142.03;;;;;17.10;97122.00;;;;5087951;28;20204;-86
2023/10/12 07:41:33;;;;;;;168.83;151.30;;;;;16.90;97113.00;;;;5086965;28;20204;-84
2023/10/12 07:44:23;;;;;;;164.83;148.07;;;;;17.40;97120.00;;;;5089508;28;20220;-85
2023/10/12 07:47:18;;;;;;;173.23;155.47;;;;;17.60;97121.00;;;;5084800;28;20232;-86
2023/10/12 07:50:10;;;;;;;178.37;160.27;;;;;17.60;97119.00;;;;5083375;28;20211;-86
2023/10/12 07:53:08;;;;;;;186.27;167.30;;;;;17.90;97120.00;;;;5083861;28;20211;-85
2023/10/12 07:56:00;;;;;;;189.43;170.50;;;;;17.80;97122.00;;;;5083801;28;20224;-84
2023/10/12 07:58:57;;;;;;;194.47;174.70;;;;;18.20;97125.00;;;;5088144;28;20200;-86
2023/10/12 08:01:50;;;;;;;203.43;182.77;;;;;18.50;97123.00;;;;5078855;28;20200;-85
2023/10/12 08:04:39;;;;;;;214.73;192.00;;;;;18.80;97125.00;;;;5088456;28;20229;-86
2023/10/12 08:07:55;;;;;;;229.67;205.47;;;;;19.00;97120.00;;;;5088447;28;20211;-87
2023/10/12 08:10:56;;;;;;;221.10;198.70;;;;;19.40;97114.00;;;;5089962;28;20203;-86
2023/10/12 08:13:49;;;;;;;228.43;205.97;;;;;19.40;97125.00;;;;5089099;28;20203;-86
2023/10/12 08:16:42;;;;;;;245.33;221.53;;;;;19.10;97123.00;;;;5081416;28;20238;-85
2023/10/12 08:19:38;;;;;;;254.33;229.30;;;;;19.80;97120.00;;;;5085606;28;20230;-86
2023/10/12 08:22:29;;;;;;;260.43;235.03;;;;;20.00;97115.00;;;;5082941;28;20499;-87
2023/10/12 08:25:27;;;;;;;262.93;237.27;;;;;20.00;97118.00;;;;5083186;28;20239;-88
2023/10/12 08:28:19;;;;;;;267.93;242.60;;;;;20.20;97110.00;;;;5090479;28;20211;-85
2023/10/12 08:31:20;;;;;;;271.30;246.00;;;;;20.60;97111.00;;;;5084873;28;20210;-86
2023/10/12 08:34:41;;;;;;;277.67;252.63;;;;;20.90;97121.00;;;;5087014;28;20441;-86
2023/10/12 08:37:26;;;;;;;291.10;265.10;;;;;20.90;97119.00;;;;5085849;28;20208;-85
2023/10/12 08:40:19;;;;;;;302.10;274.83;;;;;21.20;97114.00;;;;5083833;28;20196;-87
2023/10/12 08:43:09;;;;;;;298.97;271.87;;;;;20.90;97105.00;;;;5085683;28;20196;-86
2023/10/12 08:45:58;;;;;;;313.37;286.03;;;;;21.50;97112.00;;;;5081639;28;20245;-86
2023/10/12 08:48:53;;;;;;;310.93;284.17;;;;;22.20;97113.00;;;;5087306;28;20229;-86
2023/10/12 08:52:04;;;;;;;324.87;296.23;;;;;22.00;97106.00;;;;5082828;28;20203;-85
2023/10/12 08:54:52;;;;;;;325.60;297.50;;;;;22.50;97104.00;;;;5080124;28;20208;-86
2023/10/12 08:57:45;;;;;;;341.23;311.93;;;;;22.60;97110.00;;;;5086113;28;20195;-85
2023/10/12 09:01:07;;;;;;;349.87;319.63;;;;;23.00;97105.00;;;;5086823;28;20276;-86
2023/10/12 09:04:03;;;;;;;357.90;327.60;;;;;23.10;97103.00;;;;5082236;28;20210;-86
2023/10/12 09:06:56;;;;;;;364.17;333.77;;;;;23.50;97104.00;;;;5080995;28;20228;-85
2023/10/12 09:09:55;;;;;;;371.30;340.50;;;;;23.70;97104.00;;;;5087332;28;20208;-87
2023/10/12 09:12:43;;;;;;;374.13;343.97;;;;;23.90;97099.00;;;;5085539;28;20204;-85
2023/10/12 09:15:45;;;;;;;407.87;374.13;;;;;24.40;97095.00;;;;5088510;28;20609;-87
2023/10/12 09:18:43;;;;;;;409.00;375.07;;;;;25.00;97094.00;;;;5087823;28;20211;-87
2023/10/12 09:21:41;;;;;;;420.60;385.83;;;;;24.90;97089.00;;;;5084572;28;20200;-86
2023/10/12 09:24:35;;;;;;;431.23;395.20;;;;;25.10;97087.00;;;;5082345;28;20235;-88
2023/10/12 09:27:36;;;;;;;431.77;395.73;;;;;25.30;97079.00;;;;5086990;28;20673;-87
2023/10/12 09:30:27;;;;;;;442.70;406.57;;;;;25.40;97081.00;;;;5084161;28;20206;-86
2023/10/12 09:33:44;;;;;;;440.93;405.83;;;;;25.50;97078.00;;;;5079386;28;20200;-87
2023/10/12 09:36:37;;;;;;;449.83;413.63;;;;;25.70;97074.00;;;;5080957;28;20227;-87
2023/10/12 09:39:27;;;;;;;451.17;414.17;;;;;25.90;97065.00;;;;5081149;28;20475;-87
2023/10/12 09:42:24;;;;;;;461.37;423.57;;;;;26.20;97076.00;;;;5083847;28;20200;-86
2023/10/12 09:45:15;;;;;;;472.63;433.63;;;;;26.40;97078.00;;;;5078354;28;20234;-86
2023/10/12 09:48:24;;;;;;;474.83;435.77;;;;;26.40;97079.00;;;;5078603;28;20204;-86
2023/10/12 09:51:16;;;;;;;481.57;442.47;;;;;26.60;97090.00;;;;5077995;28;20207;-87
2023/10/12 09:54:15;;;;;;;488.73;448.37;;;;;25.90;97093.00;;;;5080203;28;20223;-87
2023/10/12 09:57:16;;;;;;;489.27;449.73;;;;;25.70;97097.00;;;;5079068;28;20517;-87
2023/10/12 10:00:19;;;;;;;481.80;443.50;;;;;25.80;97088.00;;;;5083052;28;20203;-87
2023/10/12 10:03:10;;;;;;;478.63;440.63;;;;;25.90;97085.00;;;;5089851;28;20199;-86
2023/10/12 10:06:10;;;;;;;479.13;441.10;;;;;25.70;97094.00;;;;5091034;28;20247;-87
2023/10/12 10:12:08;;;;;;;476.13;438.37;;;;;26.20;97081.00;;;;5090357;28;20187;-86
2023/10/12 10:15:00;;;;;;;472.27;434.43;;;;;26.50;97082.00;;;;5089961;28;20204;-87
2023/10/12 10:17:53;;;;;;;477.87;439.27;;;;;27.10;97059.00;;;;5090353;28;20203;-86
2023/10/12 10:20:56;;;;;;;495.67;454.93;;;;;27.60;97060.00;;;;5090392;28;20241;-86
2023/10/12 10:23:49;;;;;;;512.70;470.73;;;;;28.20;97061.00;;;;5089440;28;20215;-86
2023/10/12 10:26:38;;;;;;;534.87;489.70;;;;;28.50;97059.00;;;;5091978;28;20237;-87
2023/10/12 10:29:53;;;;;;;557.67;511.67;;;;;29.10;97064.00;;;;5091904;28;20200;-87
2023/10/12 10:32:42;;;;;;;582.13;534.40;;;;;29.00;97062.00;;;;5092320;28;20190;-86
2023/10/12 10:36:05;;;;;;;600.70;550.93;;;;;29.10;97038.00;;;;5091959;28;20243;-86
2023/10/12 10:39:03;;;;;;;594.93;546.97;;;;;28.90;97058.00;;;;5087067;28;20205;-86
2023/10/12 10:41:56;;;;;;;608.53;559.60;;;;;29.00;97071.00;;;;5092089;28;20205;-87
2023/10/12 10:44:52;;;;;;;608.47;559.67;;;;;28.90;97042.00;;;;5079413;28;20586;-86
2023/10/12 10:47:49;;;;;;;619.80;569.60;;;;;30.00;97030.00;;;;5082305;28;20650;-87
2023/10/12 10:50:53;;;;;;;632.97;581.70;;;;;30.20;97029.00;;;;5078116;28;20221;-87
2023/10/12 10:53:42;;;;;;;648.27;595.83;;;;;30.90;97024.00;;;;5081628;28;20215;-87
2023/10/12 10:56:35;;;;;;;665.83;613.00;;;;;30.70;97020.00;;;;5077841;28;20654;-87
2023/10/12 10:59:25;;;;;;;669.43;617.07;;;;;31.20;97016.00;;;;5076791;28;20298;-87
2023/10/12 11:02:16;;;;;;;679.50;627.03;;;;;30.70;97011.00;;;;5077048;28;20204;-87
2023/10/12 11:05:10;;;;;;;688.00;635.07;;;;;31.10;97009.00;;;;5074282;28;20659;-87
2023/10/12 11:08:18;;;;;;;699.92;646.45;;;;;31.80;97014.00;;;;5080831;28;20230;-86
2023/10/12 11:11:25;;;;;;;706.05;652.90;;;;;32.10;97012.00;;;;5085669;28;20211;-86
2023/10/12 11:14:17;;;;;;;713.08;659.58;;;;;32.20;96997.00;;;;5085689;28;20210;-86
2023/10/12 11:17:06;;;;;;;723.47;669.35;;;;;32.60;97015.00;;;;5087929;28;20240;-86
2023/10/12 11:19:58;;;;;;;732.90;678.80;;;;;32.70;97004.00;;;;5083420;28;20203;-87
2023/10/12 11:22:47;;;;;;;744.72;690.00;;;;;33.10;97004.00;;;;5085830;28;20214;-87
2023/10/12 11:25:41;;;;;;;756.25;700.20;;;;;33.00;96997.00;;;;5092985;28;20233;-87
2023/10/12 11:28:30;;;;;;;752.22;696.78;;;;;32.00;96984.00;;;;5083667;28;20225;-87
2023/10/12 11:31:20;;;;;;;747.95;693.35;;;;;32.00;96977.00;;;;5088965;28;20199;-86
2023/10/12 11:34:13;;;;;;;749.30;694.58;;;;;32.40;96982.00;;;;5089200;28;20204;-87
2023/10/12 11:37:03;;;;;;;754.22;699.22;;;;;32.50;96968.00;;;;5089937;28;20234;-87
2023/10/12 11:39:54;;;;;;;754.25;700.05;;;;;33.50;96959.00;;;;5091658;28;20213;-88
2023/10/12 11:42:53;;;;;;;772.58;716.58;;;;;33.60;96964.00;;;;5090659;28;20195;-87
2023/10/12 11:45:56;;;;;;;784.35;727.70;;;;;35.20;96955.00;;;;5091811;28;20214;-86
2023/10/12 11:48:45;;;;;;;795.72;739.20;;;;;36.10;96962.00;;;;5101906;28;20195;-85
2023/10/12 11:51:40;;;;;;;817.83;760.90;;;;;35.90;96955.00;;;;5102531;28;20301;-86
2023/10/12 11:54:34;;;;;;;819.15;762.70;;;;;34.80;96957.00;;;;5102096;28;20208;-84
2023/10/12 11:57:23;;;;;;;837.40;780.72;;;;;35.60;96948.00;;;;5096268;28;20232;-87
2023/10/12 12:00:21;;;;;;;834.17;777.92;;;;;34.10;96963.00;;;;5094868;28;20207;-84
2023/10/12 12:03:10;;;;;;;831.10;775.17;;;;;34.40;96939.00;;;;5092919;28;20225;-87
2023/10/12 12:06:02;;;;;;;826.97;770.80;;;;;35.00;96935.00;;;;5100359;28;20219;-87
2023/10/12 12:08:56;;;;;;;823.83;767.95;;;;;35.50;96927.00;;;;5094816;28;20207;-85
2023/10/12 12:11:47;;;;;;;839.10;782.55;;;;;36.00;96935.00;;;;5086310;28;20208;-85
2023/10/12 12:14:36;;;;;;;844.25;786.90;;;;;36.70;96931.00;;;;5090002;28;20215;-85
2023/10/12 12:17:26;;;;;;;850.58;793.33;;;;;37.40;96925.00;;;;5091133;28;20215;-84
2023/10/12 12:20:21;;;;;;;851.33;795.00;;;;;37.50;96929.00;;;;5095277;28;20233;-85
2023/10/12 12:23:11;;;;;;;849.75;793.78;;;;;38.10;96930.00;;;;5093507;28;20201;-85
2023/10/12 12:26:07;;;;;;;1043.75;981.67;;;;;37.80;96926.00;;;;5092316;28;20741;-85
2023/10/12 12:29:03;;;;;;;;;;;;;38.00;96923.00;;;;5093868;28;20403;-84
2023/10/12 12:31:53;;;;;;;;;;;;;36.30;96923.00;;;;5098772;28;19920;-85
2023/10/12 12:34:47;;;;;;;;;;;;;38.00;96932.00;;;;5100421;28;20545;-85
2023/10/12 12:37:38;;;;;;;;;;;;;38.30;96926.00;;;;5094333;28;19908;-85
2023/10/12 12:40:29;;;;;;;;;;;;;38.90;96924.00;;;;5097366;28;19909;-84
2023/10/12 12:43:19;;;;;;;;;;;;;39.30;96929.00;;;;5089947;28;19924;-85
2023/10/12 12:46:11;;;;;;;;;;;35.40;52.60;40.00;96926.00;;;;5091921;28;19924;-85
2023/10/12 12:49:00;;;;;;;;;;;35.40;53.40;40.10;96916.00;;;;5082206;28;19921;-86
2023/10/12 12:51:50;;;;;;;;;;;35.90;52.90;40.30;96923.00;;;;5086399;28;19920;-87
2023/10/12 12:54:39;;;;;;;;;;;36.40;52.70;40.70;96918.00;;;;5091482;28;20566;-86
2023/10/12 12:57:28;;;;;;;;;;;36.70;50.80;40.90;96923.00;;;;5087587;28;20657;-87
2023/10/12 13:00:21;;;;;;;;;;;37.00;50.20;40.40;96955.00;;;;5088062;28;19920;-87
2023/10/12 13:03:11;;;;;;;;;;;37.10;50.40;40.60;96936.00;;;;5081508;28;19931;-86
2023/10/12 13:06:00;;;;;;;;;;;37.00;50.70;40.30;96943.00;;;;5103618;28;19920;-87
2023/10/12 13:08:49;;;;;;;;;;;37.30;50.30;39.50;96957.00;;;;5084342;28;19928;-85
2023/10/12 13:11:37;;;;;;;;;;;37.00;50.30;38.60;96966.00;;;;5095426;28;19939;-84
2023/10/12 13:14:28;;;;;;;;;;;;;38.10;96950.00;;;;5091022;28;19921;-85
2023/10/12 13:17:18;;;;;;;;;;;;;39.10;96923.00;;;;5082970;28;19920;-85
2023/10/12 13:20:17;;;;;;;;;;;;;38.50;96925.00;;;;5080051;28;20459;-85
2023/10/12 13:23:13;;;;;;;927.47;870.15;;;;;36.00;96921.00;;;;5080155;28;20043;-85
2023/10/12 13:26:08;;;;;;;918.42;861.05;;;;;35.90;96931.00;;;;5078176;28;20223;-85
2023/10/12 13:28:57;;;;;;;909.80;852.92;;;;;35.90;96915.00;;;;5083310;28;20200;-84
2023/10/12 13:31:46;;;;;;;913.90;855.58;;;;;37.90;96917.00;;;;5084825;28;20201;-85
2023/10/12 13:34:36;;;;;;;907.83;850.10;;;;;37.90;96911.00;;;;5086466;28;20211;-85
2023/10/12 13:37:30;;;;;;;908.42;850.70;;;;;38.10;96932.00;;;;5084400;28;25091;-86
2023/10/12 13:40:19;;;;;;;908.50;851.05;;;;;38.50;96914.00;;;;5084012;28;20223;-85
2023/10/12 13:43:14;;;;;;;904.55;847.75;;;;;38.70;96903.00;;;;5090193;28;20217;-86
2023/10/12 13:46:07;;;;;;;;;;;;;39.20;96908.00;;;;5082557;28;20049;-85
2023/10/12 13:48:56;;;;;;;915.30;858.13;;;35.70;51.70;39.80;96915.00;;;;5078128;28;20265;-85
2023/10/12 13:51:48;;;;;;;934.38;876.00;;;35.90;52.20;40.30;96912.00;;;;5093931;28;25094;-85
2023/10/12 13:54:42;;;;;;;936.88;878.25;;;36.30;52.00;39.90;96914.00;;;;5097933;28;21452;-86
2023/10/12 13:57:32;;;;;;;940.40;881.83;;;36.60;52.30;38.50;96912.00;;;;5094514;28;20234;-85
2023/10/12 14:00:25;;;;;;;937.88;879.83;;;36.60;52.40;38.50;96922.00;;;;5093244;28;20714;-84
2023/10/12 14:03:17;;;;;;;935.80;877.92;;;36.20;52.70;39.20;96924.00;;;;5078354;28;20214;-86
2023/10/12 14:06:06;;;;;;;931.78;874.28;;;36.10;53.60;37.90;96920.00;;;;5090884;28;20223;-85
2023/10/12 14:08:56;;;;;;;932.20;874.58;;;;;37.00;96916.00;;;;5096686;28;20222;-85
2023/10/12 14:11:51;;;;;;;928.33;870.40;;;;;37.40;96917.00;;;;5086999;28;20210;-85
2023/10/12 14:14:40;;;;;;;923.05;865.08;;;;;35.50;96926.00;;;;5095632;28;20204;-85